createdAt,value
2018-04-07T00:01:56.974Z,63.90
2018-04-07T00:04:24.728Z,64.00
2018-04-07T00:06:52.340Z,64.00
2018-04-07T00:09:20.430Z,64.10
2018-04-07T00:11:48.472Z,64.40
2018-04-07T00:14:16.912Z,63.90
2018-04-07T00:16:45.703Z,64.00
2018-04-07T00:19:14.345Z,63.90
2018-04-07T00:21:42.376Z,64.10
2018-04-07T00:24:10.093Z,64.00
2018-04-07T00:26:37.724Z,63.80
2018-04-07T00:29:05.477Z,63.70
2018-04-07T00:31:33.315Z,63.80
2018-04-07T00:34:09.931Z,63.80
2018-04-07T00:36:47.814Z,63.90
2018-04-07T00:42:05.436Z,64.20
2018-04-07T00:44:35.046Z,64.20
2018-04-07T00:47:02.734Z,64.10
2018-04-07T00:49:42.736Z,64.10
2018-04-07T00:52:17.821Z,63.90
2018-04-07T00:57:35.106Z,63.80
2018-04-07T01:00:16.883Z,63.50
2018-04-07T01:02:47.789Z,63.20
2018-04-07T01:05:21.041Z,63.20
2018-04-07T01:07:50.451Z,63.20
2018-04-07T01:10:21.355Z,63.10
2018-04-07T01:12:49.398Z,63.80
2018-04-07T01:15:20.524Z,63.80
2018-04-07T01:17:53.815Z,63.90
2018-04-07T01:20:25.859Z,64.10
2018-04-07T01:22:55.470Z,64.00
2018-04-07T01:25:25.138Z,63.60
2018-04-07T01:27:59.539Z,63.90
2018-04-07T01:30:31.594Z,63.90
2018-04-07T01:33:02.114Z,64.00
2018-04-07T01:35:29.730Z,64.20
2018-04-07T01:38:05.342Z,64.30
2018-04-07T01:40:36.063Z,64.40
2018-04-07T01:43:10.358Z,64.20
2018-04-07T01:45:43.522Z,64.90
2018-04-07T01:48:15.838Z,64.90
2018-04-07T01:50:46.550Z,65.00
2018-04-07T01:53:18.783Z,65.50
2018-04-07T01:56:06.045Z,65.40
2018-04-07T01:58:36.003Z,65.70
2018-04-07T02:01:09.806Z,65.30
2018-04-07T02:03:37.436Z,66.20
2018-04-07T02:06:11.515Z,66.80
2018-04-07T02:08:39.177Z,67.10
2018-04-07T02:11:11.172Z,68.30
2018-04-07T02:13:40.470Z,68.30
2018-04-07T02:16:14.487Z,68.30
2018-04-07T02:18:49.588Z,69.20
2018-04-07T02:21:20.490Z,69.30
2018-04-07T02:23:48.228Z,69.30
2018-04-07T02:26:23.137Z,69.40
2018-04-07T02:28:55.327Z,69.60
2018-04-07T02:31:29.765Z,69.30
2018-04-07T02:34:01.033Z,69.50
2018-04-07T02:36:31.872Z,69.30
2018-04-07T02:39:07.317Z,69.30
2018-04-07T02:41:41.218Z,69.50
2018-04-07T02:44:09.972Z,69.50
2018-04-07T02:46:42.259Z,69.50
2018-04-07T02:49:09.933Z,69.40
2018-04-07T02:51:39.225Z,69.40
2018-04-07T02:56:42.506Z,69.00
2018-04-07T02:59:10.909Z,69.00
2018-04-07T03:01:40.353Z,69.00
2018-04-07T03:04:12.996Z,69.80
2018-04-07T03:06:48.409Z,69.80
2018-04-07T03:09:22.134Z,70.60
2018-04-07T03:11:53.443Z,70.70
2018-04-07T03:14:26.938Z,71.50
2018-04-07T03:16:56.763Z,71.90
2018-04-07T03:19:28.352Z,71.40
2018-04-07T03:22:00.203Z,72.00
2018-04-07T03:24:29.616Z,72.80
2018-04-07T03:27:00.794Z,72.80
2018-04-07T03:29:33.238Z,73.70
2018-04-07T03:32:06.514Z,73.70
2018-04-07T03:35:00.554Z,74.10
2018-04-07T03:37:32.390Z,74.30
2018-04-07T03:40:01.264Z,74.30
2018-04-07T03:45:24.712Z,74.70
2018-04-07T03:47:56.177Z,74.90
2018-04-07T03:50:27.756Z,73.90
2018-04-07T03:53:00.812Z,73.40
2018-04-07T03:55:28.767Z,73.80
2018-04-07T03:57:57.557Z,73.60
2018-04-07T04:00:29.883Z,72.90
2018-04-07T04:03:01.548Z,73.20
2018-04-07T04:05:32.328Z,72.60
2018-04-07T04:08:01.419Z,72.60
2018-04-07T04:10:29.112Z,72.40
2018-04-07T04:12:57.899Z,72.00
2018-04-07T04:15:30.642Z,72.60
2018-04-07T04:17:59.201Z,73.10
2018-04-07T04:20:29.626Z,72.20
2018-04-07T04:22:57.580Z,71.90
2018-04-07T04:25:25.186Z,71.80
2018-04-07T04:27:52.750Z,71.90
2018-04-07T04:30:21.132Z,71.80
2018-04-07T04:32:49.654Z,71.70
2018-04-07T04:35:17.240Z,71.70
2018-04-07T04:37:45.200Z,72.60
2018-04-07T04:40:13.519Z,73.30
2018-04-07T04:42:41.915Z,73.30
2018-04-07T04:45:09.507Z,73.10
2018-04-07T04:47:37.142Z,73.50
2018-04-07T04:50:04.714Z,73.20
2018-04-07T04:52:32.248Z,73.00
2018-04-07T04:54:59.897Z,73.80
2018-04-07T04:57:27.866Z,73.70
2018-04-07T04:59:55.481Z,73.70
2018-04-07T05:02:23.012Z,73.00
2018-04-07T05:04:50.544Z,73.80
2018-04-07T05:07:18.162Z,74.30
2018-04-07T05:09:47.375Z,74.60
2018-04-07T05:12:15.346Z,74.80
2018-04-07T05:14:43.302Z,75.60
2018-04-07T05:17:10.837Z,75.60
2018-04-07T05:19:38.387Z,75.70
2018-04-07T05:22:05.946Z,75.60
2018-04-07T05:24:33.529Z,75.90
2018-04-07T05:27:01.071Z,73.90
2018-04-07T05:29:28.629Z,73.70
2018-04-07T05:31:56.842Z,72.60
2018-04-07T05:34:24.794Z,73.60
2018-04-07T05:36:52.395Z,73.60
2018-04-07T05:39:19.972Z,73.30
2018-04-07T05:41:47.555Z,73.20
2018-04-07T05:44:15.229Z,73.50
2018-04-07T05:46:42.788Z,73.10
2018-04-07T05:49:10.380Z,73.10
2018-04-07T05:51:38.681Z,74.30
2018-04-07T05:54:06.233Z,74.30
2018-04-07T05:56:33.822Z,74.40
2018-04-07T05:59:01.401Z,73.50
2018-04-07T06:01:29.073Z,72.60
2018-04-07T06:03:56.732Z,71.10
2018-04-07T06:06:24.361Z,70.50
2018-04-07T06:08:51.930Z,70.60
2018-04-07T06:11:19.466Z,71.40
2018-04-07T06:13:47.074Z,71.40
2018-04-07T06:16:15.586Z,70.80
2018-04-07T06:18:43.134Z,71.10
2018-04-07T06:21:11.086Z,69.70
2018-04-07T06:23:38.641Z,69.70
2018-04-07T06:26:06.232Z,69.60
2018-04-07T06:28:34.738Z,69.70
2018-04-07T06:31:03.250Z,68.10
2018-04-07T06:33:31.374Z,67.30
2018-04-07T06:35:59.393Z,65.80
2018-04-07T06:38:26.956Z,65.80
2018-04-07T06:40:54.892Z,65.00
2018-04-07T06:43:22.459Z,64.80
2018-04-07T06:45:50.015Z,65.30
2018-04-07T06:48:17.785Z,65.20
2018-04-07T06:50:45.602Z,64.60
2018-04-07T06:53:13.146Z,65.10
2018-04-07T06:55:41.182Z,65.20
2018-04-07T06:58:08.743Z,64.70
2018-04-07T07:00:36.520Z,65.30
2018-04-07T07:03:06.614Z,65.50
2018-04-07T07:05:34.154Z,65.20
2018-04-07T07:08:01.853Z,65.10
2018-04-07T07:10:29.458Z,66.00
2018-04-07T07:12:57.809Z,66.10
2018-04-07T07:15:25.380Z,65.10
2018-04-07T07:17:52.924Z,65.70
2018-04-07T07:20:20.486Z,66.70
2018-04-07T07:22:48.075Z,64.70
2018-04-07T07:25:16.567Z,62.60
2018-04-07T07:27:44.511Z,65.00
2018-04-07T07:30:12.060Z,65.00
2018-04-07T07:32:39.677Z,63.50
2018-04-07T07:35:07.796Z,64.20
2018-04-07T07:37:35.350Z,61.80
2018-04-07T07:40:03.482Z,61.70
2018-04-07T07:42:31.021Z,60.90
2018-04-07T07:44:58.976Z,60.20
2018-04-07T07:47:26.988Z,60.60
2018-04-07T07:49:54.577Z,60.60
2018-04-07T07:52:23.078Z,60.10
2018-04-07T07:54:50.642Z,60.50
2018-04-07T07:57:18.612Z,59.60
2018-04-07T07:59:46.591Z,60.40
2018-04-07T08:02:14.529Z,59.70
2018-04-07T08:04:42.079Z,59.70
2018-04-07T08:07:09.614Z,58.70
2018-04-07T08:09:37.950Z,59.70
2018-04-07T08:12:06.493Z,59.40
2018-04-07T08:14:34.067Z,59.40
2018-04-07T08:17:01.644Z,58.70
2018-04-07T08:19:29.281Z,57.90
2018-04-07T08:21:58.031Z,59.40
2018-04-07T08:24:25.566Z,59.80
2018-04-07T08:26:53.510Z,58.60
2018-04-07T08:29:21.090Z,58.60
2018-04-07T08:31:48.717Z,58.10
2018-04-07T08:34:16.721Z,59.00
2018-04-07T08:36:44.702Z,57.70
2018-04-07T08:39:12.272Z,57.70
2018-04-07T08:41:39.848Z,55.90
2018-04-07T08:44:07.416Z,57.90
2018-04-07T08:46:34.956Z,55.80
2018-04-07T08:49:02.581Z,56.20
2018-04-07T08:51:30.143Z,57.10
2018-04-07T08:53:58.605Z,55.80
2018-04-07T08:56:26.817Z,55.80
2018-04-07T08:58:54.798Z,55.20
2018-04-07T09:01:22.426Z,55.20
2018-04-07T09:03:49.975Z,54.50
2018-04-07T09:06:17.584Z,54.20
2018-04-07T09:08:46.065Z,54.10
2018-04-07T09:11:13.636Z,53.10
2018-04-07T09:13:41.792Z,54.60
2018-04-07T09:16:09.753Z,54.10
2018-04-07T09:18:37.926Z,52.30
2018-04-07T09:21:05.863Z,51.20
2018-04-07T09:23:33.429Z,51.20
2018-04-07T09:26:01.072Z,52.60
2018-04-07T09:28:28.646Z,52.80
2018-04-07T09:31:01.847Z,53.00
2018-04-07T09:33:29.406Z,52.60
2018-04-07T09:35:57.362Z,50.70
2018-04-07T09:38:24.915Z,50.80
2018-04-07T09:40:52.477Z,53.40
2018-04-07T09:43:21.394Z,50.80
2018-04-07T09:45:48.948Z,50.20
2018-04-07T09:48:17.007Z,52.90
2018-04-07T09:50:44.897Z,52.90
2018-04-07T09:53:13.009Z,48.50
2018-04-07T09:55:40.574Z,48.50
2018-04-07T09:58:09.159Z,51.70
2018-04-07T10:00:36.877Z,49.40
2018-04-07T10:03:04.954Z,47.90
2018-04-07T10:05:33.625Z,49.60
2018-04-07T10:08:01.214Z,49.60
2018-04-07T10:10:29.279Z,51.10
2018-04-07T10:12:57.294Z,47.60
2018-04-07T10:15:25.476Z,47.60
2018-04-07T10:17:53.037Z,49.30
2018-04-07T10:20:21.602Z,47.00
2018-04-07T10:22:50.175Z,47.80
2018-04-07T10:25:17.729Z,47.50
2018-04-07T10:27:45.292Z,49.40
2018-04-07T10:30:12.901Z,47.80
2018-04-07T10:32:40.444Z,47.80
2018-04-07T10:35:08.009Z,48.50
2018-04-07T10:37:35.561Z,46.60
2018-04-07T10:40:04.957Z,44.20
2018-04-07T10:42:32.490Z,47.00
2018-04-07T10:45:00.053Z,47.90
2018-04-07T10:47:27.638Z,44.00
2018-04-07T10:49:55.207Z,46.80
2018-04-07T10:52:22.757Z,42.50
2018-04-07T10:54:50.320Z,44.90
2018-04-07T10:57:17.962Z,43.30
2018-04-07T10:59:47.213Z,42.90
2018-04-07T11:02:14.777Z,42.40
2018-04-07T11:04:42.833Z,42.60
2018-04-07T11:07:10.485Z,44.10
2018-04-07T11:09:38.038Z,42.50
2018-04-07T11:12:05.628Z,42.80
2018-04-07T11:14:33.574Z,40.70
2018-04-07T11:17:01.743Z,42.80
2018-04-07T11:19:29.311Z,42.80
2018-04-07T11:21:57.017Z,40.10
2018-04-07T11:24:24.705Z,38.60
2018-04-07T11:26:52.237Z,40.50
2018-04-07T11:29:19.836Z,39.30
2018-04-07T11:31:47.666Z,39.20
2018-04-07T11:34:15.232Z,40.60
2018-04-07T11:36:42.803Z,40.60
2018-04-07T11:39:10.352Z,41.70
2018-04-07T11:41:38.458Z,40.80
2018-04-07T11:44:06.073Z,36.90
2018-04-07T11:46:34.018Z,28.30
2018-04-07T11:49:02.002Z,25.70
2018-04-07T11:51:30.020Z,25.30
2018-04-07T11:53:57.562Z,25.30
2018-04-07T11:56:25.125Z,23.90
2018-04-07T11:58:52.856Z,21.80
2018-04-07T12:01:20.820Z,22.00
2018-04-07T12:03:48.860Z,22.00
2018-04-07T12:06:16.551Z,21.40
2018-04-07T12:08:44.513Z,20.00
2018-04-07T12:11:12.559Z,18.20
2018-04-07T12:13:40.116Z,18.20
2018-04-07T12:16:07.687Z,18.20
2018-04-07T12:18:35.228Z,20.20
2018-04-07T12:21:02.786Z,18.90
2018-04-07T12:23:30.375Z,18.70
2018-04-07T12:25:58.337Z,18.30
2018-04-07T12:28:25.985Z,18.30
2018-04-07T12:30:53.538Z,17.30
2018-04-07T12:35:55.295Z,17.90
2018-04-07T12:38:22.848Z,16.80
2018-04-07T12:40:51.106Z,18.90
2018-04-07T12:43:18.656Z,17.90
2018-04-07T12:45:46.235Z,18.50
2018-04-07T12:48:13.803Z,16.60
2018-04-07T12:50:41.365Z,17.10
2018-04-07T12:53:09.905Z,16.20
2018-04-07T12:55:38.422Z,17.20
2018-04-07T12:58:06.027Z,16.40
2018-04-07T13:00:33.587Z,16.20
2018-04-07T13:03:01.113Z,16.30
2018-04-07T13:05:28.683Z,15.40
2018-04-07T13:07:56.737Z,16.60
2018-04-07T13:10:24.322Z,15.40
2018-04-07T13:12:51.883Z,16.30
2018-04-07T13:15:19.447Z,16.50
2018-04-07T13:17:47.027Z,18.30
2018-04-07T13:20:14.580Z,17.30
2018-04-07T13:22:42.157Z,17.70
2018-04-07T13:25:10.153Z,17.00
2018-04-07T13:27:37.706Z,16.90
2018-04-07T13:30:05.294Z,18.40
2018-04-07T13:32:32.894Z,17.80
2018-04-07T13:35:00.449Z,20.20
2018-04-07T13:37:28.869Z,19.50
2018-04-07T13:39:56.445Z,19.50
2018-04-07T13:42:23.993Z,19.20
2018-04-07T13:44:51.594Z,19.40
2018-04-07T13:47:19.147Z,17.40
2018-04-07T13:49:46.697Z,20.30
2018-04-07T13:52:14.259Z,18.60
2018-04-07T13:54:41.848Z,19.70
2018-04-07T13:57:09.591Z,20.70
2018-04-07T13:59:37.140Z,21.60
2018-04-07T14:02:04.733Z,20.10
2018-04-07T14:04:32.303Z,22.60
2018-04-07T14:07:00.264Z,20.50
2018-04-07T14:09:28.194Z,18.20
2018-04-07T14:11:55.765Z,18.20
2018-04-07T14:14:23.300Z,18.90
2018-04-07T14:16:50.908Z,19.30
2018-04-07T14:19:18.512Z,19.00
2018-04-07T14:21:46.207Z,17.80
2018-04-07T14:24:13.841Z,18.40
2018-04-07T14:26:41.406Z,18.00
2018-04-07T14:29:08.963Z,17.50
2018-04-07T14:31:36.865Z,16.90
2018-04-07T14:34:04.403Z,19.60
2018-04-07T14:36:31.989Z,19.10
2018-04-07T14:39:00.849Z,22.80
2018-04-07T14:41:28.861Z,21.70
2018-04-07T14:43:56.808Z,21.50
2018-04-07T14:46:24.386Z,21.50
2018-04-07T14:48:51.965Z,23.40
2018-04-07T14:51:19.917Z,22.10
2018-04-07T14:53:47.464Z,22.10
2018-04-07T14:56:16.660Z,19.80
2018-04-07T14:58:44.342Z,19.40
2018-04-07T15:01:12.299Z,19.50
2018-04-07T15:03:39.991Z,19.50
2018-04-07T15:06:07.938Z,20.40
2018-04-07T15:08:35.480Z,20.40
2018-04-07T15:11:03.038Z,21.00
2018-04-07T15:13:30.639Z,19.80
2018-04-07T15:15:58.597Z,18.00
2018-04-07T15:18:26.572Z,19.60
2018-04-07T15:20:54.558Z,19.30
2018-04-07T15:23:22.116Z,19.30
2018-04-07T15:25:49.663Z,18.80
2018-04-07T15:28:17.622Z,16.30
2018-04-07T15:30:45.475Z,16.30
2018-04-07T15:33:13.155Z,16.50
2018-04-07T15:35:41.144Z,16.80
2018-04-07T15:38:08.687Z,16.80
2018-04-07T15:40:37.176Z,19.50
2018-04-07T15:43:05.119Z,18.10
2018-04-07T15:45:32.693Z,18.10
2018-04-07T15:48:00.272Z,17.20
2018-04-07T15:50:27.834Z,17.20
2018-04-07T15:52:55.405Z,18.10
2018-04-07T15:55:22.987Z,19.80
2018-04-07T15:57:50.526Z,20.30
2018-04-07T16:00:18.153Z,17.90
2018-04-07T16:02:45.964Z,18.90
2018-04-07T16:05:13.583Z,19.20
2018-04-07T16:07:41.654Z,17.70
2018-04-07T16:10:09.630Z,17.00
2018-04-07T16:12:37.558Z,17.20
2018-04-07T16:15:05.133Z,17.20
2018-04-07T16:17:32.682Z,17.70
2018-04-07T16:20:00.900Z,16.70
2018-04-07T16:22:28.517Z,16.50
2018-04-07T16:24:56.036Z,17.10
2018-04-07T16:27:23.663Z,16.00
2018-04-07T16:29:51.615Z,16.90
2018-04-07T16:32:19.169Z,16.90
2018-04-07T16:34:46.721Z,16.70
2018-04-07T16:37:14.286Z,17.70
2018-04-07T16:39:41.831Z,17.80
2018-04-07T16:42:09.386Z,17.70
2018-04-07T16:44:36.951Z,17.60
2018-04-07T16:47:04.783Z,17.80
2018-04-07T16:49:32.334Z,16.40
2018-04-07T16:52:00.675Z,17.70
2018-04-07T16:54:28.568Z,15.30
2018-04-07T16:56:56.178Z,17.40
2018-04-07T16:59:23.813Z,16.30
2018-04-07T17:01:51.366Z,17.30
2018-04-07T17:04:19.323Z,17.70
2018-04-07T17:06:46.893Z,17.80
2018-04-07T17:09:14.483Z,18.50
2018-04-07T17:11:42.058Z,19.00
2018-04-07T17:14:09.850Z,21.50
2018-04-07T17:16:38.052Z,22.70
2018-04-07T17:19:05.974Z,24.90
2018-04-07T17:21:33.618Z,24.90
2018-04-07T17:24:01.339Z,26.00
2018-04-07T17:26:28.942Z,30.40
2018-04-07T17:28:56.513Z,32.90
2018-04-07T17:31:24.795Z,36.60
2018-04-07T17:33:52.347Z,37.40
2018-04-07T17:36:19.920Z,38.10
2018-04-07T17:38:47.481Z,39.70
2018-04-07T17:41:15.039Z,41.80
2018-04-07T17:43:42.656Z,41.90
2018-04-07T17:46:10.441Z,41.90
2018-04-07T17:48:38.057Z,40.70
2018-04-07T17:51:05.611Z,41.70
2018-04-07T17:53:33.566Z,40.70
2018-04-07T17:56:01.532Z,41.90
2018-04-07T17:58:29.612Z,42.90
2018-04-07T18:00:57.240Z,42.90
2018-04-07T18:03:24.845Z,43.20
2018-04-07T18:05:52.834Z,44.00
2018-04-07T18:08:20.721Z,44.00
2018-04-07T18:10:49.305Z,44.80
2018-04-07T18:13:17.327Z,45.20
2018-04-07T18:15:45.386Z,45.50
2018-04-07T18:18:13.275Z,45.50
2018-04-07T18:20:41.253Z,45.40
2018-04-07T18:23:08.806Z,45.40
2018-04-07T18:25:36.770Z,45.80
2018-04-07T18:28:05.678Z,46.40
2018-04-07T18:30:33.288Z,46.40
2018-04-07T18:33:01.321Z,46.90
2018-04-07T18:35:29.257Z,47.00
2018-04-07T18:37:56.980Z,47.00
2018-04-07T18:40:24.613Z,47.10
2018-04-07T18:42:53.226Z,47.50
2018-04-07T18:45:21.075Z,47.90
2018-04-07T18:47:49.021Z,47.40
2018-04-07T19:08:03.090Z,46.40
2018-04-07T19:10:30.634Z,47.00
2018-04-07T19:12:58.232Z,47.40
2018-04-07T19:15:25.838Z,48.00
2018-04-07T19:17:54.767Z,50.00
2018-04-07T19:20:22.335Z,50.00
2018-04-07T19:22:49.904Z,49.90
2018-04-07T19:25:17.471Z,49.70
2018-04-07T19:27:45.092Z,49.70
2018-04-07T19:30:12.645Z,50.20
2018-04-07T19:32:40.711Z,50.20
2018-04-07T19:35:08.655Z,49.90
2018-04-07T19:37:36.908Z,50.00
2018-04-07T19:40:04.516Z,50.40
2018-04-07T19:42:32.525Z,51.80
2018-04-07T19:45:00.154Z,51.90
2018-04-07T19:47:28.144Z,51.40
2018-04-07T19:49:55.722Z,51.40
2018-04-07T19:52:23.251Z,51.20
2018-04-07T19:54:50.863Z,51.40
2018-04-07T19:57:18.418Z,51.60
2018-04-07T19:59:46.004Z,51.90
2018-04-07T20:02:13.985Z,51.40
2018-04-07T20:04:41.586Z,51.40
2018-04-07T20:07:09.151Z,51.50
2018-04-07T20:09:36.713Z,52.10
2018-04-07T20:12:05.105Z,51.70
2018-04-07T20:14:32.740Z,52.00
2018-04-07T20:17:00.493Z,53.30
2018-04-07T20:19:28.901Z,52.00
2018-04-07T20:21:56.556Z,52.20
2018-04-07T20:24:24.274Z,52.20
2018-04-07T20:26:52.042Z,52.40
2018-04-07T20:29:19.668Z,52.70
2018-04-07T20:31:47.412Z,52.20
2018-04-07T20:34:15.364Z,53.00
2018-04-07T20:36:44.445Z,53.50
2018-04-07T20:42:23.954Z,53.70
2018-04-07T20:48:10.659Z,53.50
2018-04-07T20:50:43.796Z,53.40
2018-04-07T20:53:23.034Z,53.40
2018-04-07T20:55:55.572Z,54.90
2018-04-07T20:58:32.688Z,53.80
2018-04-07T21:01:01.522Z,53.40
2018-04-07T21:09:09.621Z,53.80
2018-04-07T21:19:48.961Z,54.60
2018-04-07T21:22:44.709Z,55.20
2018-04-07T21:25:28.892Z,55.70
2018-04-07T21:28:00.063Z,56.80
2018-04-07T21:33:34.003Z,55.90
2018-04-07T21:38:37.361Z,56.70
2018-04-07T21:41:08.682Z,56.80
2018-04-07T21:46:39.714Z,56.50
2018-04-07T21:52:22.512Z,57.50
2018-04-07T21:57:40.520Z,57.40
2018-04-07T22:00:17.065Z,57.60
2018-04-07T22:35:37.335Z,60.50
2018-04-07T22:38:12.500Z,59.70
2018-04-07T22:40:49.334Z,60.70
2018-04-07T22:43:33.247Z,60.10
2018-04-07T22:49:12.785Z,57.40
2018-04-07T22:52:05.085Z,58.50
2018-04-07T22:54:33.953Z,58.30
2018-04-07T22:57:05.147Z,58.00
2018-04-07T22:59:33.139Z,58.60
2018-04-07T23:02:01.213Z,59.00
2018-04-07T23:04:28.906Z,59.00
2018-04-07T23:06:56.505Z,59.80
2018-04-07T23:09:24.182Z,59.80
2018-04-07T23:11:52.219Z,60.70
2018-04-07T23:14:19.814Z,60.70
2018-04-07T23:16:47.519Z,61.60
2018-04-07T23:19:15.412Z,58.40
2018-04-07T23:21:43.400Z,60.00
2018-04-07T23:24:11.694Z,60.90
2018-04-07T23:26:39.893Z,60.30
2018-04-07T23:29:07.673Z,60.30
2018-04-07T23:31:35.798Z,60.30
2018-04-07T23:34:03.530Z,60.30
2018-04-07T23:36:31.181Z,61.80
2018-04-07T23:38:58.795Z,61.90
2018-04-07T23:41:26.890Z,61.60
2018-04-07T23:43:54.595Z,61.60
2018-04-07T23:46:22.398Z,62.80
2018-04-07T23:48:50.540Z,63.80
2018-04-07T23:51:18.120Z,63.80
2018-04-07T23:53:46.233Z,63.20
2018-04-07T23:56:14.373Z,64.20
2018-04-07T23:58:42.148Z,64.20
